Archival Weather

Bridgeport/Sikorsky

Bridgeport, Connecticut (KBDR)

Report from: Friday, February 23, 2024 1:52 AM EST
Current time: Wednesday, May 29, 2024 9:00 PM EDT

Current weather – Weather history – Daily summaries
Weather forecast

Present weatherLight rain
Temperature3.9°C (39.0°F)
Wind chill1.5°C (34.8°F)
Dew point3.3°C (37.9°F)
Winds 5 kts (2.6 m/s, 5.8 mph) East (80°)
Visibility10 mi. (16.1 km)
Clouds Few clouds 1,500 ft. (457 m)
Ceiling: Broken clouds 4,600 ft. (1,402 m)
Overcast 6,500 ft. (1,981 m)
Altimeter29.66 in.Hg (1004 mB)
Precipitiation0.03 in. (1 mm)
Relative humidity96 %
Density altitude-925 ft. (-282 m)
Sea-level pressure100.4 kPa (1004 mB, 29.66 in.Hg)
Remarks Fully automated report
Automated weather observing station with precipitation discriminator
Flight conditions Visual Meteorological Conditions
Raw dataKBDR 230652Z AUTO 08005KT 10SM -RA FEW015 BKN046 OVC065 04/03 A2966 RMK AO2 SLP043 P0003 T00390033
An error has occurred. This application may no longer respond until reloaded. Reload 🗙